sensor_id;sensor_type;location;lat;lon;timestamp;temperature;humidity
11991;DHT22;6055;52.522;13.446;2022-07-22T00:00:23;22.50;99.90
11991;DHT22;6055;52.522;13.446;2022-07-22T00:02:49;22.40;99.90
11991;DHT22;6055;52.522;13.446;2022-07-22T00:05:14;22.40;99.90
11991;DHT22;6055;52.522;13.446;2022-07-22T00:07:40;22.50;99.90
11991;DHT22;6055;52.522;13.446;2022-07-22T00:10:07;22.40;99.90
11991;DHT22;6055;52.522;13.446;2022-07-22T00:12:34;22.40;99.90
11991;DHT22;6055;52.522;13.446;2022-07-22T00:14:59;22.40;99.90
11991;DHT22;6055;52.522;13.446;2022-07-22T00:17:25;22.50;99.90
11991;DHT22;6055;52.522;13.446;2022-07-22T00:19:51;22.40;99.90
11991;DHT22;6055;52.522;13.446;2022-07-22T00:22:16;22.50;99.90
11991;DHT22;6055;52.522;13.446;2022-07-22T00:24:42;22.40;99.90
11991;DHT22;6055;52.522;13.446;2022-07-22T00:27:07;22.50;99.90
11991;DHT22;6055;52.522;13.446;2022-07-22T00:29:33;22.40;99.90
11991;DHT22;6055;52.522;13.446;2022-07-22T00:31:58;22.50;99.90
11991;DHT22;6055;52.522;13.446;2022-07-22T00:34:24;22.50;99.90
11991;DHT22;6055;52.522;13.446;2022-07-22T00:36:49;22.50;99.90
11991;DHT22;6055;52.522;13.446;2022-07-22T00:39:15;22.40;99.90
11991;DHT22;6055;52.522;13.446;2022-07-22T00:41:41;22.40;99.90
11991;DHT22;6055;52.522;13.446;2022-07-22T00:44:08;22.40;99.90
11991;DHT22;6055;52.522;13.446;2022-07-22T00:46:35;22.20;99.90
11991;DHT22;6055;52.522;13.446;2022-07-22T00:49:04;22.20;99.90
11991;DHT22;6055;52.522;13.446;2022-07-22T00:51:30;22.30;99.90
11991;DHT22;6055;52.522;13.446;2022-07-22T00:53:56;22.20;99.90
11991;DHT22;6055;52.522;13.446;2022-07-22T00:56:25;22.20;99.90
11991;DHT22;6055;52.522;13.446;2022-07-22T00:58:53;22.10;99.90
11991;DHT22;6055;52.522;13.446;2022-07-22T01:01:19;22.10;99.90
11991;DHT22;6055;52.522;13.446;2022-07-22T01:03:45;22.10;99.90
11991;DHT22;6055;52.522;13.446;2022-07-22T01:06:11;22.10;99.90
11991;DHT22;6055;52.522;13.446;2022-07-22T01:08:37;22.00;99.90
11991;DHT22;6055;52.522;13.446;2022-07-22T01:11:11;21.90;99.90
11991;DHT22;6055;52.522;13.446;2022-07-22T01:13:38;21.90;99.90
11991;DHT22;6055;52.522;13.446;2022-07-22T01:16:04;21.90;99.90
11991;DHT22;6055;52.522;13.446;2022-07-22T01:18:30;21.90;99.90
11991;DHT22;6055;52.522;13.446;2022-07-22T01:20:56;21.90;99.90
11991;DHT22;6055;52.522;13.446;2022-07-22T01:23:22;21.90;99.90
11991;DHT22;6055;52.522;13.446;2022-07-22T01:25:48;21.90;99.90
11991;DHT22;6055;52.522;13.446;2022-07-22T01:28:13;21.80;99.90
11991;DHT22;6055;52.522;13.446;2022-07-22T01:30:39;21.80;99.90
11991;DHT22;6055;52.522;13.446;2022-07-22T01:33:04;21.80;99.90
11991;DHT22;6055;52.522;13.446;2022-07-22T01:35:30;21.80;99.90
11991;DHT22;6055;52.522;13.446;2022-07-22T01:37:56;21.80;99.90
11991;DHT22;6055;52.522;13.446;2022-07-22T01:40:21;21.70;99.90
11991;DHT22;6055;52.522;13.446;2022-07-22T01:42:47;21.60;99.90
11991;DHT22;6055;52.522;13.446;2022-07-22T01:45:12;21.60;99.90
11991;DHT22;6055;52.522;13.446;2022-07-22T01:47:38;21.50;99.90
11991;DHT22;6055;52.522;13.446;2022-07-22T01:50:05;21.50;99.90
11991;DHT22;6055;52.522;13.446;2022-07-22T01:52:31;21.50;99.90
11991;DHT22;6055;52.522;13.446;2022-07-22T01:54:57;21.50;99.90
11991;DHT22;6055;52.522;13.446;2022-07-22T01:57:22;21.50;99.90
11991;DHT22;6055;52.522;13.446;2022-07-22T01:59:48;21.50;99.90
11991;DHT22;6055;52.522;13.446;2022-07-22T02:02:13;21.50;99.90
11991;DHT22;6055;52.522;13.446;2022-07-22T02:04:38;21.50;99.90
11991;DHT22;6055;52.522;13.446;2022-07-22T02:07:04;21.40;99.90
11991;DHT22;6055;52.522;13.446;2022-07-22T02:09:30;21.40;99.90
11991;DHT22;6055;52.522;13.446;2022-07-22T02:11:55;21.30;99.90
11991;DHT22;6055;52.522;13.446;2022-07-22T02:14:21;21.30;99.90
11991;DHT22;6055;52.522;13.446;2022-07-22T02:16:46;21.20;99.90
11991;DHT22;6055;52.522;13.446;2022-07-22T02:19:12;21.20;99.90
11991;DHT22;6055;52.522;13.446;2022-07-22T02:21:37;21.10;99.90
11991;DHT22;6055;52.522;13.446;2022-07-22T02:24:03;21.10;99.90
11991;DHT22;6055;52.522;13.446;2022-07-22T02:26:29;21.10;99.90
11991;DHT22;6055;52.522;13.446;2022-07-22T02:28:55;21.10;99.90
11991;DHT22;6055;52.522;13.446;2022-07-22T02:31:20;21.10;99.90
11991;DHT22;6055;52.522;13.446;2022-07-22T02:33:46;21.10;99.90
11991;DHT22;6055;52.522;13.446;2022-07-22T02:36:12;21.10;99.90
11991;DHT22;6055;52.522;13.446;2022-07-22T02:38:38;21.10;99.90
11991;DHT22;6055;52.522;13.446;2022-07-22T02:41:03;21.10;99.90
11991;DHT22;6055;52.522;13.446;2022-07-22T02:43:29;21.10;99.90
11991;DHT22;6055;52.522;13.446;2022-07-22T02:45:54;21.00;99.90
11991;DHT22;6055;52.522;13.446;2022-07-22T02:48:20;21.00;99.90
11991;DHT22;6055;52.522;13.446;2022-07-22T02:50:46;21.00;99.90
11991;DHT22;6055;52.522;13.446;2022-07-22T02:53:12;20.90;99.90
11991;DHT22;6055;52.522;13.446;2022-07-22T02:55:37;20.90;99.90
11991;DHT22;6055;52.522;13.446;2022-07-22T02:58:07;20.80;99.90
11991;DHT22;6055;52.522;13.446;2022-07-22T03:00:34;20.80;99.90
11991;DHT22;6055;52.522;13.446;2022-07-22T03:02:59;20.80;99.90
11991;DHT22;6055;52.522;13.446;2022-07-22T03:05:25;20.80;99.90
11991;DHT22;6055;52.522;13.446;2022-07-22T03:07:50;20.70;99.90
11991;DHT22;6055;52.522;13.446;2022-07-22T03:10:16;20.70;99.90
11991;DHT22;6055;52.522;13.446;2022-07-22T03:12:41;20.70;99.90
11991;DHT22;6055;52.522;13.446;2022-07-22T03:15:08;20.60;99.90
11991;DHT22;6055;52.522;13.446;2022-07-22T03:17:34;20.60;99.90
11991;DHT22;6055;52.522;13.446;2022-07-22T03:20:04;20.70;99.90
11991;DHT22;6055;52.522;13.446;2022-07-22T03:22:30;20.60;99.90
11991;DHT22;6055;52.522;13.446;2022-07-22T03:24:56;20.60;99.90
11991;DHT22;6055;52.522;13.446;2022-07-22T03:27:22;20.60;99.90
11991;DHT22;6055;52.522;13.446;2022-07-22T03:29:47;20.60;99.90
11991;DHT22;6055;52.522;13.446;2022-07-22T03:32:13;20.60;99.90
11991;DHT22;6055;52.522;13.446;2022-07-22T03:34:38;20.50;99.90
11991;DHT22;6055;52.522;13.446;2022-07-22T03:37:04;20.60;99.90
11991;DHT22;6055;52.522;13.446;2022-07-22T03:39:30;20.60;99.90
11991;DHT22;6055;52.522;13.446;2022-07-22T03:41:55;20.60;99.90
11991;DHT22;6055;52.522;13.446;2022-07-22T03:44:21;20.50;99.90
11991;DHT22;6055;52.522;13.446;2022-07-22T03:46:46;20.50;99.90
11991;DHT22;6055;52.522;13.446;2022-07-22T03:49:12;20.40;99.90
11991;DHT22;6055;52.522;13.446;2022-07-22T03:51:37;20.40;99.90
11991;DHT22;6055;52.522;13.446;2022-07-22T03:54:03;20.30;99.90
11991;DHT22;6055;52.522;13.446;2022-07-22T03:56:28;20.30;99.90
11991;DHT22;6055;52.522;13.446;2022-07-22T03:58:54;20.40;99.90
11991;DHT22;6055;52.522;13.446;2022-07-22T04:01:19;20.40;99.90
11991;DHT22;6055;52.522;13.446;2022-07-22T04:03:45;20.40;99.90
11991;DHT22;6055;52.522;13.446;2022-07-22T04:06:10;20.50;99.90
11991;DHT22;6055;52.522;13.446;2022-07-22T04:08:36;20.50;99.90
11991;DHT22;6055;52.522;13.446;2022-07-22T04:11:02;20.60;99.90
11991;DHT22;6055;52.522;13.446;2022-07-22T04:13:27;20.60;99.90
11991;DHT22;6055;52.522;13.446;2022-07-22T04:15:53;20.60;99.90
11991;DHT22;6055;52.522;13.446;2022-07-22T04:18:18;20.60;99.90
11991;DHT22;6055;52.522;13.446;2022-07-22T04:20:44;20.70;99.90
11991;DHT22;6055;52.522;13.446;2022-07-22T04:23:09;20.60;99.90
11991;DHT22;6055;52.522;13.446;2022-07-22T04:25:35;20.60;99.90
11991;DHT22;6055;52.522;13.446;2022-07-22T04:28:00;20.60;99.90
11991;DHT22;6055;52.522;13.446;2022-07-22T04:30:26;20.60;99.90
11991;DHT22;6055;52.522;13.446;2022-07-22T04:32:52;20.60;99.90
11991;DHT22;6055;52.522;13.446;2022-07-22T04:35:18;20.60;99.90
11991;DHT22;6055;52.522;13.446;2022-07-22T04:37:43;20.70;99.90
11991;DHT22;6055;52.522;13.446;2022-07-22T04:40:10;20.70;99.90
11991;DHT22;6055;52.522;13.446;2022-07-22T04:42:35;20.70;99.90
11991;DHT22;6055;52.522;13.446;2022-07-22T04:45:01;20.80;99.90
11991;DHT22;6055;52.522;13.446;2022-07-22T04:47:27;20.70;99.90
11991;DHT22;6055;52.522;13.446;2022-07-22T04:49:52;20.60;99.90
11991;DHT22;6055;52.522;13.446;2022-07-22T04:52:18;20.60;99.90
11991;DHT22;6055;52.522;13.446;2022-07-22T04:54:44;20.60;99.90
11991;DHT22;6055;52.522;13.446;2022-07-22T04:57:09;20.60;99.90
11991;DHT22;6055;52.522;13.446;2022-07-22T04:59:35;20.60;99.90
11991;DHT22;6055;52.522;13.446;2022-07-22T05:02:00;20.60;99.90
11991;DHT22;6055;52.522;13.446;2022-07-22T05:04:26;20.60;99.90
11991;DHT22;6055;52.522;13.446;2022-07-22T05:06:51;20.60;99.90
11991;DHT22;6055;52.522;13.446;2022-07-22T05:09:17;20.60;99.90
11991;DHT22;6055;52.522;13.446;2022-07-22T05:11:42;20.50;99.90
11991;DHT22;6055;52.522;13.446;2022-07-22T05:14:08;20.50;99.90
11991;DHT22;6055;52.522;13.446;2022-07-22T05:16:35;20.50;99.90
11991;DHT22;6055;52.522;13.446;2022-07-22T05:19:02;20.60;99.90
11991;DHT22;6055;52.522;13.446;2022-07-22T05:21:28;20.60;99.90
11991;DHT22;6055;52.522;13.446;2022-07-22T05:23:54;20.60;99.90
11991;DHT22;6055;52.522;13.446;2022-07-22T05:26:19;20.80;99.90
11991;DHT22;6055;52.522;13.446;2022-07-22T05:28:45;20.80;99.90
11991;DHT22;6055;52.522;13.446;2022-07-22T05:31:10;21.00;99.90
11991;DHT22;6055;52.522;13.446;2022-07-22T05:33:36;21.10;99.90
11991;DHT22;6055;52.522;13.446;2022-07-22T05:36:01;21.20;99.90
11991;DHT22;6055;52.522;13.446;2022-07-22T05:38:27;21.10;99.90
11991;DHT22;6055;52.522;13.446;2022-07-22T05:40:53;21.00;99.90
11991;DHT22;6055;52.522;13.446;2022-07-22T05:43:19;21.10;99.90
11991;DHT22;6055;52.522;13.446;2022-07-22T05:45:44;21.10;99.90
11991;DHT22;6055;52.522;13.446;2022-07-22T05:48:09;21.00;99.90
11991;DHT22;6055;52.522;13.446;2022-07-22T05:50:35;20.90;99.90
11991;DHT22;6055;52.522;13.446;2022-07-22T05:53:01;20.90;99.90
11991;DHT22;6055;52.522;13.446;2022-07-22T05:55:26;21.00;99.90
11991;DHT22;6055;52.522;13.446;2022-07-22T05:57:52;21.00;99.90
11991;DHT22;6055;52.522;13.446;2022-07-22T06:00:17;21.10;99.90
11991;DHT22;6055;52.522;13.446;2022-07-22T06:02:43;21.10;99.90
11991;DHT22;6055;52.522;13.446;2022-07-22T06:05:09;21.10;99.90
11991;DHT22;6055;52.522;13.446;2022-07-22T06:07:34;21.20;99.90
11991;DHT22;6055;52.522;13.446;2022-07-22T06:10:00;21.20;99.90
11991;DHT22;6055;52.522;13.446;2022-07-22T06:12:25;21.30;99.90
11991;DHT22;6055;52.522;13.446;2022-07-22T06:14:51;21.40;99.90
11991;DHT22;6055;52.522;13.446;2022-07-22T06:17:16;21.40;99.90
11991;DHT22;6055;52.522;13.446;2022-07-22T06:19:42;21.50;99.90
11991;DHT22;6055;52.522;13.446;2022-07-22T06:22:07;21.50;99.90
11991;DHT22;6055;52.522;13.446;2022-07-22T06:24:33;21.60;99.90
11991;DHT22;6055;52.522;13.446;2022-07-22T06:26:58;21.60;99.90
11991;DHT22;6055;52.522;13.446;2022-07-22T06:29:24;21.60;99.90
11991;DHT22;6055;52.522;13.446;2022-07-22T06:31:49;21.60;99.90
11991;DHT22;6055;52.522;13.446;2022-07-22T06:34:15;21.70;99.90
11991;DHT22;6055;52.522;13.446;2022-07-22T06:36:41;21.70;99.90
11991;DHT22;6055;52.522;13.446;2022-07-22T06:39:06;21.70;99.90
11991;DHT22;6055;52.522;13.446;2022-07-22T06:41:32;21.70;99.90
11991;DHT22;6055;52.522;13.446;2022-07-22T06:43:57;21.70;99.90
11991;DHT22;6055;52.522;13.446;2022-07-22T06:46:23;21.80;99.90
11991;DHT22;6055;52.522;13.446;2022-07-22T06:48:48;21.80;99.90
11991;DHT22;6055;52.522;13.446;2022-07-22T06:51:14;21.80;99.90
11991;DHT22;6055;52.522;13.446;2022-07-22T06:53:40;22.00;99.90
11991;DHT22;6055;52.522;13.446;2022-07-22T06:56:06;22.00;99.90
11991;DHT22;6055;52.522;13.446;2022-07-22T06:58:31;22.20;99.90
11991;DHT22;6055;52.522;13.446;2022-07-22T07:01:00;22.20;99.90
11991;DHT22;6055;52.522;13.446;2022-07-22T07:03:25;22.30;99.90
11991;DHT22;6055;52.522;13.446;2022-07-22T07:05:52;22.50;99.90
11991;DHT22;6055;52.522;13.446;2022-07-22T07:08:17;22.60;99.90
11991;DHT22;6055;52.522;13.446;2022-07-22T07:10:43;22.50;99.90
11991;DHT22;6055;52.522;13.446;2022-07-22T07:13:09;22.50;99.90
11991;DHT22;6055;52.522;13.446;2022-07-22T07:15:34;22.60;99.90
11991;DHT22;6055;52.522;13.446;2022-07-22T07:18:00;22.70;99.90
11991;DHT22;6055;52.522;13.446;2022-07-22T07:20:25;22.70;99.90
11991;DHT22;6055;52.522;13.446;2022-07-22T07:22:51;22.70;99.90
11991;DHT22;6055;52.522;13.446;2022-07-22T07:25:17;22.80;99.90
11991;DHT22;6055;52.522;13.446;2022-07-22T07:27:42;22.90;99.90
11991;DHT22;6055;52.522;13.446;2022-07-22T07:30:08;22.80;99.90
11991;DHT22;6055;52.522;13.446;2022-07-22T07:32:35;22.70;99.90
11991;DHT22;6055;52.522;13.446;2022-07-22T07:35:04;22.70;99.90
11991;DHT22;6055;52.522;13.446;2022-07-22T07:37:30;22.80;99.90
11991;DHT22;6055;52.522;13.446;2022-07-22T07:39:57;22.80;99.90
11991;DHT22;6055;52.522;13.446;2022-07-22T07:42:22;22.70;99.90
11991;DHT22;6055;52.522;13.446;2022-07-22T07:44:48;22.80;99.90
11991;DHT22;6055;52.522;13.446;2022-07-22T07:47:14;22.80;99.90
11991;DHT22;6055;52.522;13.446;2022-07-22T07:49:43;22.80;99.90
11991;DHT22;6055;52.522;13.446;2022-07-22T07:52:10;23.00;99.90
11991;DHT22;6055;52.522;13.446;2022-07-22T07:54:35;22.90;99.90
11991;DHT22;6055;52.522;13.446;2022-07-22T07:57:01;22.80;99.90
11991;DHT22;6055;52.522;13.446;2022-07-22T07:59:27;22.80;99.90
11991;DHT22;6055;52.522;13.446;2022-07-22T08:01:52;22.80;99.90
11991;DHT22;6055;52.522;13.446;2022-07-22T08:04:18;22.90;99.90
11991;DHT22;6055;52.522;13.446;2022-07-22T08:06:43;23.00;99.90
11991;DHT22;6055;52.522;13.446;2022-07-22T08:09:09;23.10;99.90
11991;DHT22;6055;52.522;13.446;2022-07-22T08:11:35;23.10;99.90
11991;DHT22;6055;52.522;13.446;2022-07-22T08:14:01;23.30;99.90
11991;DHT22;6055;52.522;13.446;2022-07-22T08:16:26;23.40;99.90
11991;DHT22;6055;52.522;13.446;2022-07-22T08:18:52;23.60;99.90
11991;DHT22;6055;52.522;13.446;2022-07-22T08:21:17;23.70;99.90
11991;DHT22;6055;52.522;13.446;2022-07-22T08:23:44;23.70;99.90
11991;DHT22;6055;52.522;13.446;2022-07-22T08:26:09;23.60;99.90
11991;DHT22;6055;52.522;13.446;2022-07-22T08:28:35;23.50;99.90
11991;DHT22;6055;52.522;13.446;2022-07-22T08:31:00;23.40;99.90
11991;DHT22;6055;52.522;13.446;2022-07-22T08:33:26;23.30;99.90
11991;DHT22;6055;52.522;13.446;2022-07-22T08:35:51;23.20;99.90
11991;DHT22;6055;52.522;13.446;2022-07-22T08:38:17;23.20;99.90
11991;DHT22;6055;52.522;13.446;2022-07-22T08:40:43;23.40;99.90
11991;DHT22;6055;52.522;13.446;2022-07-22T08:43:08;23.60;99.90
11991;DHT22;6055;52.522;13.446;2022-07-22T08:45:34;24.00;99.90
11991;DHT22;6055;52.522;13.446;2022-07-22T08:47:59;24.30;99.90
11991;DHT22;6055;52.522;13.446;2022-07-22T08:50:29;24.40;99.90
11991;DHT22;6055;52.522;13.446;2022-07-22T08:52:54;24.10;99.90
11991;DHT22;6055;52.522;13.446;2022-07-22T08:55:20;23.90;99.90
11991;DHT22;6055;52.522;13.446;2022-07-22T08:57:46;23.60;99.90
11991;DHT22;6055;52.522;13.446;2022-07-22T09:00:15;23.20;99.90
11991;DHT22;6055;52.522;13.446;2022-07-22T09:02:42;23.00;99.90
11991;DHT22;6055;52.522;13.446;2022-07-22T09:05:10;22.90;99.90
11991;DHT22;6055;52.522;13.446;2022-07-22T09:07:39;22.90;99.90
11991;DHT22;6055;52.522;13.446;2022-07-22T09:10:10;22.70;99.90
11991;DHT22;6055;52.522;13.446;2022-07-22T09:13:00;22.60;99.90
11991;DHT22;6055;52.522;13.446;2022-07-22T09:15:31;22.60;99.90
11991;DHT22;6055;52.522;13.446;2022-07-22T09:17:59;22.70;99.90
11991;DHT22;6055;52.522;13.446;2022-07-22T09:20:26;23.00;99.90
11991;DHT22;6055;52.522;13.446;2022-07-22T09:22:52;23.20;99.90
11991;DHT22;6055;52.522;13.446;2022-07-22T09:25:32;23.80;99.90
11991;DHT22;6055;52.522;13.446;2022-07-22T09:30:35;23.80;99.90
11991;DHT22;6055;52.522;13.446;2022-07-22T09:33:01;23.60;99.90
11991;DHT22;6055;52.522;13.446;2022-07-22T09:35:28;23.50;99.90
11991;DHT22;6055;52.522;13.446;2022-07-22T09:38:13;23.20;99.90
11991;DHT22;6055;52.522;13.446;2022-07-22T09:40:41;23.20;99.90
11991;DHT22;6055;52.522;13.446;2022-07-22T09:43:12;22.90;99.90
11991;DHT22;6055;52.522;13.446;2022-07-22T09:45:53;22.80;99.90
11991;DHT22;6055;52.522;13.446;2022-07-22T09:48:20;22.80;99.90
11991;DHT22;6055;52.522;13.446;2022-07-22T09:50:47;22.90;99.90
11991;DHT22;6055;52.522;13.446;2022-07-22T09:53:14;23.10;99.90
11991;DHT22;6055;52.522;13.446;2022-07-22T09:55:40;23.30;99.90
11991;DHT22;6055;52.522;13.446;2022-07-22T09:58:06;23.40;99.90
11991;DHT22;6055;52.522;13.446;2022-07-22T10:00:36;23.50;99.90
11991;DHT22;6055;52.522;13.446;2022-07-22T10:03:05;23.70;99.90
11991;DHT22;6055;52.522;13.446;2022-07-22T10:05:34;23.70;99.90
11991;DHT22;6055;52.522;13.446;2022-07-22T10:08:01;24.10;99.90
11991;DHT22;6055;52.522;13.446;2022-07-22T10:10:29;24.30;99.90
11991;DHT22;6055;52.522;13.446;2022-07-22T10:12:56;24.40;99.90
11991;DHT22;6055;52.522;13.446;2022-07-22T10:15:23;24.30;99.90
11991;DHT22;6055;52.522;13.446;2022-07-22T10:17:52;24.60;99.90
11991;DHT22;6055;52.522;13.446;2022-07-22T10:20:20;25.00;99.90
11991;DHT22;6055;52.522;13.446;2022-07-22T10:22:48;25.60;99.90
11991;DHT22;6055;52.522;13.446;2022-07-22T10:25:18;25.60;99.90
11991;DHT22;6055;52.522;13.446;2022-07-22T10:28:10;25.70;99.90
11991;DHT22;6055;52.522;13.446;2022-07-22T10:30:45;25.70;99.90
11991;DHT22;6055;52.522;13.446;2022-07-22T10:33:15;25.50;99.90
11991;DHT22;6055;52.522;13.446;2022-07-22T10:38:09;25.20;99.90
11991;DHT22;6055;52.522;13.446;2022-07-22T10:43:53;24.90;99.90
11991;DHT22;6055;52.522;13.446;2022-07-22T10:46:17;24.80;99.90
11991;DHT22;6055;52.522;13.446;2022-07-22T10:48:46;25.00;99.90
11991;DHT22;6055;52.522;13.446;2022-07-22T10:51:17;25.60;99.90
11991;DHT22;6055;52.522;13.446;2022-07-22T10:54:00;26.20;99.90
11991;DHT22;6055;52.522;13.446;2022-07-22T10:56:28;27.30;99.90
11991;DHT22;6055;52.522;13.446;2022-07-22T11:01:23;28.70;96.10
11991;DHT22;6055;52.522;13.446;2022-07-22T11:03:50;28.00;96.20
11991;DHT22;6055;52.522;13.446;2022-07-22T11:09:04;27.90;96.50
11991;DHT22;6055;52.522;13.446;2022-07-22T11:11:44;28.30;95.80
11991;DHT22;6055;52.522;13.446;2022-07-22T11:14:27;28.70;95.30
11991;DHT22;6055;52.522;13.446;2022-07-22T11:16:58;27.40;97.50
11991;DHT22;6055;52.522;13.446;2022-07-22T11:19:26;26.70;99.90
11991;DHT22;6055;52.522;13.446;2022-07-22T11:21:55;26.20;99.90
11991;DHT22;6055;52.522;13.446;2022-07-22T11:24:21;26.00;99.90
11991;DHT22;6055;52.522;13.446;2022-07-22T11:26:49;25.70;99.90
11991;DHT22;6055;52.522;13.446;2022-07-22T11:29:30;25.70;99.90
11991;DHT22;6055;52.522;13.446;2022-07-22T11:31:58;25.60;99.90
11991;DHT22;6055;52.522;13.446;2022-07-22T11:34:25;25.40;99.90
11991;DHT22;6055;52.522;13.446;2022-07-22T11:36:51;25.50;99.90
11991;DHT22;6055;52.522;13.446;2022-07-22T11:39:21;25.70;99.90
11991;DHT22;6055;52.522;13.446;2022-07-22T11:41:47;25.90;99.90
11991;DHT22;6055;52.522;13.446;2022-07-22T11:44:18;26.10;99.90
11991;DHT22;6055;52.522;13.446;2022-07-22T11:46:44;26.40;99.90
11991;DHT22;6055;52.522;13.446;2022-07-22T11:49:13;26.50;99.90
11991;DHT22;6055;52.522;13.446;2022-07-22T11:51:39;26.30;99.90
11991;DHT22;6055;52.522;13.446;2022-07-22T11:54:05;26.70;99.90
11991;DHT22;6055;52.522;13.446;2022-07-22T11:56:31;27.10;98.90
11991;DHT22;6055;52.522;13.446;2022-07-22T11:58:57;27.20;98.00
11991;DHT22;6055;52.522;13.446;2022-07-22T12:01:27;27.00;98.50
11991;DHT22;6055;52.522;13.446;2022-07-22T12:04:20;26.70;99.00
11991;DHT22;6055;52.522;13.446;2022-07-22T12:06:45;26.20;99.90
11991;DHT22;6055;52.522;13.446;2022-07-22T12:09:13;26.00;99.90
11991;DHT22;6055;52.522;13.446;2022-07-22T12:11:42;25.90;99.90
11991;DHT22;6055;52.522;13.446;2022-07-22T12:14:14;25.60;99.90
11991;DHT22;6055;52.522;13.446;2022-07-22T12:16:40;25.50;99.90
11991;DHT22;6055;52.522;13.446;2022-07-22T12:19:11;25.80;99.90
11991;DHT22;6055;52.522;13.446;2022-07-22T12:21:54;25.60;99.90
11991;DHT22;6055;52.522;13.446;2022-07-22T12:24:29;25.40;99.90
11991;DHT22;6055;52.522;13.446;2022-07-22T12:26:57;25.70;99.90
11991;DHT22;6055;52.522;13.446;2022-07-22T12:34:44;26.20;99.50
11991;DHT22;6055;52.522;13.446;2022-07-22T12:37:23;25.70;99.90
11991;DHT22;6055;52.522;13.446;2022-07-22T12:42:23;25.50;99.90
11991;DHT22;6055;52.522;13.446;2022-07-22T12:47:51;26.60;99.20
11991;DHT22;6055;52.522;13.446;2022-07-22T12:50:23;27.40;97.60
11991;DHT22;6055;52.522;13.446;2022-07-22T12:52:51;27.70;96.40
11991;DHT22;6055;52.522;13.446;2022-07-22T12:55:17;27.70;96.50
11991;DHT22;6055;52.522;13.446;2022-07-22T12:57:43;27.50;96.80
11991;DHT22;6055;52.522;13.446;2022-07-22T13:00:09;28.00;96.30
11991;DHT22;6055;52.522;13.446;2022-07-22T13:02:35;27.90;95.70
11991;DHT22;6055;52.522;13.446;2022-07-22T13:05:01;28.00;95.10
11991;DHT22;6055;52.522;13.446;2022-07-22T13:07:26;28.00;95.30
11991;DHT22;6055;52.522;13.446;2022-07-22T13:09:52;28.60;94.40
11991;DHT22;6055;52.522;13.446;2022-07-22T13:12:17;28.50;94.10
11991;DHT22;6055;52.522;13.446;2022-07-22T13:14:43;28.70;93.90
11991;DHT22;6055;52.522;13.446;2022-07-22T13:17:08;29.10;93.10
11991;DHT22;6055;52.522;13.446;2022-07-22T13:19:34;29.10;92.90
11991;DHT22;6055;52.522;13.446;2022-07-22T13:22:00;29.20;92.60
11991;DHT22;6055;52.522;13.446;2022-07-22T13:24:25;28.50;93.20
11991;DHT22;6055;52.522;13.446;2022-07-22T13:26:51;28.50;93.30
11991;DHT22;6055;52.522;13.446;2022-07-22T13:29:16;28.40;93.10
11991;DHT22;6055;52.522;13.446;2022-07-22T13:31:42;28.20;93.20
11991;DHT22;6055;52.522;13.446;2022-07-22T13:34:08;27.50;94.40
11991;DHT22;6055;52.522;13.446;2022-07-22T13:36:34;27.10;94.70
11991;DHT22;6055;52.522;13.446;2022-07-22T13:39:00;26.50;95.60
11991;DHT22;6055;52.522;13.446;2022-07-22T13:41:26;26.20;96.50
11991;DHT22;6055;52.522;13.446;2022-07-22T13:43:52;26.40;96.40
11991;DHT22;6055;52.522;13.446;2022-07-22T13:46:18;27.00;95.80
11991;DHT22;6055;52.522;13.446;2022-07-22T13:48:44;27.50;94.90
11991;DHT22;6055;52.522;13.446;2022-07-22T13:51:10;27.40;94.60
11991;DHT22;6055;52.522;13.446;2022-07-22T13:53:36;27.10;94.80
11991;DHT22;6055;52.522;13.446;2022-07-22T13:56:03;27.00;94.80
11991;DHT22;6055;52.522;13.446;2022-07-22T13:58:29;27.20;94.20
11991;DHT22;6055;52.522;13.446;2022-07-22T14:00:55;27.30;94.70
11991;DHT22;6055;52.522;13.446;2022-07-22T14:03:20;27.80;93.90
11991;DHT22;6055;52.522;13.446;2022-07-22T14:05:46;28.40;93.30
11991;DHT22;6055;52.522;13.446;2022-07-22T14:08:11;28.40;92.80
11991;DHT22;6055;52.522;13.446;2022-07-22T14:10:37;28.90;92.30
11991;DHT22;6055;52.522;13.446;2022-07-22T14:13:02;28.60;92.20
11991;DHT22;6055;52.522;13.446;2022-07-22T14:15:28;28.30;92.50
11991;DHT22;6055;52.522;13.446;2022-07-22T14:17:54;28.40;92.80
11991;DHT22;6055;52.522;13.446;2022-07-22T14:20:19;28.60;92.40
11991;DHT22;6055;52.522;13.446;2022-07-22T14:22:45;28.60;92.50
11991;DHT22;6055;52.522;13.446;2022-07-22T14:25:10;28.70;92.20
11991;DHT22;6055;52.522;13.446;2022-07-22T14:27:36;28.70;91.70
11991;DHT22;6055;52.522;13.446;2022-07-22T14:30:01;28.70;91.70
11991;DHT22;6055;52.522;13.446;2022-07-22T14:32:27;28.40;91.80
11991;DHT22;6055;52.522;13.446;2022-07-22T14:34:52;28.50;92.20
11991;DHT22;6055;52.522;13.446;2022-07-22T14:37:18;28.20;91.80
11991;DHT22;6055;52.522;13.446;2022-07-22T14:39:43;28.00;92.00
11991;DHT22;6055;52.522;13.446;2022-07-22T14:42:09;28.00;92.00
11991;DHT22;6055;52.522;13.446;2022-07-22T14:44:35;28.40;91.80
11991;DHT22;6055;52.522;13.446;2022-07-22T14:47:00;28.50;91.70
11991;DHT22;6055;52.522;13.446;2022-07-22T14:49:27;28.50;91.50
11991;DHT22;6055;52.522;13.446;2022-07-22T14:51:53;28.10;91.80
11991;DHT22;6055;52.522;13.446;2022-07-22T14:54:18;28.10;92.00
11991;DHT22;6055;52.522;13.446;2022-07-22T14:56:44;28.40;91.90
11991;DHT22;6055;52.522;13.446;2022-07-22T14:59:10;28.50;90.90
11991;DHT22;6055;52.522;13.446;2022-07-22T15:01:36;28.50;91.10
11991;DHT22;6055;52.522;13.446;2022-07-22T15:04:01;28.60;91.30
11991;DHT22;6055;52.522;13.446;2022-07-22T15:06:27;28.40;91.30
11991;DHT22;6055;52.522;13.446;2022-07-22T15:08:52;28.20;91.80
11991;DHT22;6055;52.522;13.446;2022-07-22T15:11:18;28.50;91.40
11991;DHT22;6055;52.522;13.446;2022-07-22T15:13:43;28.40;91.10
11991;DHT22;6055;52.522;13.446;2022-07-22T15:16:09;28.30;91.30
11991;DHT22;6055;52.522;13.446;2022-07-22T15:18:36;28.20;91.60
11991;DHT22;6055;52.522;13.446;2022-07-22T15:21:02;28.20;91.60
11991;DHT22;6055;52.522;13.446;2022-07-22T15:23:27;28.40;91.20
11991;DHT22;6055;52.522;13.446;2022-07-22T15:25:55;28.50;91.20
11991;DHT22;6055;52.522;13.446;2022-07-22T15:28:20;28.60;91.00
11991;DHT22;6055;52.522;13.446;2022-07-22T15:30:46;28.30;91.40
11991;DHT22;6055;52.522;13.446;2022-07-22T15:33:12;28.10;91.20
11991;DHT22;6055;52.522;13.446;2022-07-22T15:35:38;28.00;91.60
11991;DHT22;6055;52.522;13.446;2022-07-22T15:38:04;27.80;91.60
11991;DHT22;6055;52.522;13.446;2022-07-22T15:40:30;27.50;91.80
11991;DHT22;6055;52.522;13.446;2022-07-22T15:42:55;27.30;92.30
11991;DHT22;6055;52.522;13.446;2022-07-22T15:45:21;27.30;92.50
11991;DHT22;6055;52.522;13.446;2022-07-22T15:47:48;27.20;91.80
11991;DHT22;6055;52.522;13.446;2022-07-22T15:50:14;27.30;92.00